Time;durP1;ratioP1;P1;durP2;ratioP2;P2;SDS_P1;SDS_P2;PMS_P1;PMS_P2;Temp;Humidity;BMP_temperature;BMP_pressure;BME280_temperature;BME280_humidity;BME280_pressure;Samples;Min_cycle;Max_cycle;Signal;HPM_P1;HPM_P2
2021/01/11 00:01:05;;;;;;;3.95;1.70;;;;;;;4.42;75.98;94189.25;5113610;28;20287;-74
2021/01/11 00:03:31;;;;;;;2.40;1.70;;;;;;;4.43;76.11;94190.03;5112168;28;20260;-76
2021/01/11 00:05:56;;;;;;;3.40;2.00;;;;;;;4.33;75.79;94185.16;5112389;28;20774;-75
2021/01/11 00:08:21;;;;;;;1.77;1.60;;;;;;;4.53;75.54;94178.31;5128976;27;20196;-77
2021/01/11 00:10:47;;;;;;;2.20;1.60;;;;;;;4.48;74.92;94172.09;5113470;28;20181;-77
2021/01/11 00:13:12;;;;;;;3.33;2.00;;;;;;;4.58;75.49;94170.94;5112985;28;20166;-77
2021/01/11 00:15:38;;;;;;;3.00;1.93;;;;;;;4.64;75.18;94176.81;5113293;28;20170;-76
2021/01/11 00:18:03;;;;;;;2.63;1.67;;;;;;;4.64;74.80;94168.88;5113226;28;20170;-77
2021/01/11 00:20:29;;;;;;;6.43;1.70;;;;;;;4.70;74.54;94165.72;5111607;28;20193;-77
2021/01/11 00:22:54;;;;;;;3.13;1.40;;;;;;;4.65;74.94;94159.84;5112888;28;20169;-77
2021/01/11 00:25:20;;;;;;;1.60;1.50;;;;;;;4.64;74.84;94166.22;5112823;28;20231;-77
2021/01/11 00:27:45;;;;;;;2.03;1.80;;;;;;;4.68;75.17;94170.56;5111643;28;20701;-76
2021/01/11 00:30:11;;;;;;;1.73;1.63;;;;;;;4.70;74.80;94167.59;5111565;28;20178;-77
2021/01/11 00:32:37;;;;;;;1.33;1.23;;;;;;;4.73;74.43;94161.66;5111660;28;20186;-76
2021/01/11 00:35:04;;;;;;;1.65;1.40;;;;;;;4.56;76.36;94178.44;5111424;28;20176;-77
2021/01/11 00:37:29;;;;;;;1.92;1.55;;;;;;;4.48;76.79;94181.91;5111445;28;20229;-77
2021/01/11 00:39:55;;;;;;;2.20;1.50;;;;;;;4.60;75.56;94160.84;5112543;28;20177;-75
2021/01/11 00:42:20;;;;;;;1.63;1.40;;;;;;;4.63;75.21;94149.59;5128758;27;20169;-76
2021/01/11 00:44:46;;;;;;;2.93;1.67;;;;;;;4.54;74.74;94133.03;5112626;28;20521;-77
2021/01/11 00:47:11;;;;;;;2.40;1.50;;;;;;;4.63;75.33;94132.97;5128199;27;20197;-76
2021/01/11 00:49:37;;;;;;;2.33;1.63;;;;;;;4.62;75.31;94134.06;5112648;28;20177;-75
2021/01/11 00:52:03;;;;;;;1.87;1.63;;;;;;;4.72;74.79;94141.59;5128308;27;20193;-78
2021/01/11 00:54:29;;;;;;;2.30;1.50;;;;;;;4.69;74.53;94129.78;5112704;28;20182;-74
2021/01/11 00:56:54;;;;;;;1.97;1.40;;;;;;;4.74;74.52;94137.53;5128295;27;20243;-72
2021/01/11 00:59:20;;;;;;;2.30;1.53;;;;;;;4.80;74.04;94122.22;5112380;28;20637;-72
2021/01/11 01:01:54;;;;;;;1.87;1.43;;;;;;;4.78;74.79;94100.63;5112128;28;20170;-72
2021/01/11 01:04:20;;;;;;;3.38;1.52;;;;;;;4.74;74.29;94089.91;5128252;27;20169;-71
2021/01/11 01:06:46;;;;;;;1.93;1.70;;;;;;;4.79;74.16;94081.00;5111986;28;20201;-75
2021/01/11 01:09:12;;;;;;;2.75;2.10;;;;;;;4.73;74.40;94082.31;5112148;28;20166;-72
2021/01/11 01:11:38;;;;;;;2.73;1.97;;;;;;;4.81;73.94;94097.31;5112510;28;20177;-74
2021/01/11 01:14:04;;;;;;;1.88;1.45;;;;;;;4.76;74.50;94089.59;5127678;27;20601;-72
2021/01/11 01:16:30;;;;;;;2.47;1.60;;;;;;;4.84;74.25;94059.63;5112175;28;20174;-76
2021/01/11 01:18:55;;;;;;;2.73;1.50;;;;;;;4.86;74.29;94070.66;5111606;28;20543;-71
2021/01/11 01:21:21;;;;;;;2.07;1.73;;;;;;;4.81;75.04;94073.50;5112084;28;20650;-75
2021/01/11 01:23:46;;;;;;;3.50;1.73;;;;;;;4.79;74.60;94054.56;5111676;28;20177;-72
2021/01/11 01:26:12;;;;;;;1.77;1.67;;;;;;;4.70;75.51;94073.16;5111875;28;20165;-74
2021/01/11 01:28:37;;;;;;;1.73;1.40;;;;;;;4.65;76.43;94105.09;5110673;28;20173;-77
2021/01/11 01:31:03;;;;;;;2.17;1.60;;;;;;;4.75;76.29;94111.84;5110896;28;20177;-73
2021/01/11 01:33:28;;;;;;;3.07;1.60;;;;;;;4.92;75.02;94098.44;5110710;28;20177;-71
2021/01/11 01:35:54;;;;;;;1.80;1.70;;;;;;;4.86;74.93;94125.44;5110479;28;20224;-73
2021/01/11 01:38:20;;;;;;;1.90;1.80;;;;;;;4.67;76.18;94136.50;5111799;28;20197;-74
2021/01/11 01:40:46;;;;;;;2.10;1.83;;;;;;;4.64;77.17;94158.31;5111648;28;20536;-72
2021/01/11 01:43:14;;;;;;;2.50;1.70;;;;;;;4.71;76.23;94140.03;5111879;28;20166;-77
2021/01/11 01:45:40;;;;;;;3.05;1.90;;;;;;;4.57;77.69;94164.13;5111642;28;20197;-72
2021/01/11 01:48:06;;;;;;;2.13;1.70;;;;;;;4.47;78.01;94167.94;5127604;28;20212;-72
2021/01/11 01:50:31;;;;;;;2.17;1.93;;;;;;;4.71;77.01;94191.06;5110240;28;20182;-72
2021/01/11 01:52:57;;;;;;;4.33;2.30;;;;;;;4.67;78.08;94210.56;5111813;28;20213;-75
2021/01/11 01:55:22;;;;;;;3.33;2.53;;;;;;;4.55;78.14;94244.88;5127325;28;20173;-72
2021/01/11 01:57:48;;;;;;;3.13;2.30;;;;;;;4.52;78.00;94246.28;5127660;28;20174;-77
2021/01/11 02:00:16;;;;;;;4.33;2.40;;;;;;;4.37;79.02;94247.59;5093663;28;20177;-74
2021/01/11 02:02:42;;;;;;;7.22;2.72;;;;;;;4.39;79.21;94250.72;5111919;28;20170;-72
2021/01/11 02:05:07;;;;;;;6.50;2.80;;;;;;;4.33;79.54;94241.44;5110762;28;20185;-71
2021/01/11 02:07:45;;;;;;;4.13;2.93;;;;;;;4.37;79.27;94237.03;5127232;28;20684;-73
2021/01/11 02:10:47;;;;;;;5.15;3.13;;;;;;;4.48;79.39;94235.56;5127449;28;20177;-76
2021/01/11 02:13:17;;;;;;;5.70;3.17;;;;;;;4.33;79.93;94233.50;5111656;28;20661;-76
2021/01/11 02:16:07;;;;;;;4.28;3.10;;;;;;;4.46;79.82;94261.56;5110223;28;20178;-73
2021/01/11 02:18:47;;;;;;;5.75;3.28;;;;;;;4.64;78.05;94250.84;5111996;28;20169;-76
2021/01/11 02:21:31;;;;;;;4.95;3.67;;;;;;;4.43;79.28;94266.69;5126367;28;20192;-76
2021/01/11 02:24:15;;;;;;;5.57;3.83;;;;;;;4.39;79.91;94269.22;5111198;28;20209;-72
2021/01/11 02:26:56;;;;;;;7.07;4.43;;;;;;;4.43;80.22;94282.56;5111246;28;20201;-71
2021/01/11 02:29:59;;;;;;;6.75;4.13;;;;;;;4.45;80.00;94281.16;5127945;27;20185;-71
2021/01/11 02:32:25;;;;;;;7.90;4.22;;;;;;;4.38;80.47;94309.97;5115040;28;20180;-71
2021/01/11 02:34:50;;;;;;;6.53;4.40;;;;;;;4.65;79.40;94310.56;5132259;27;20591;-72
2021/01/11 02:37:16;;;;;;;7.37;4.77;;;;;;;4.61;80.25;94333.50;5113356;28;20213;-72
2021/01/11 02:39:41;;;;;;;7.13;4.93;;;;;;;4.69;79.13;94361.75;5115096;28;20177;-71
2021/01/11 02:42:07;;;;;;;5.57;4.63;;;;;;;4.67;78.59;94388.50;5113480;28;20213;-75
2021/01/11 02:44:32;;;;;;;7.13;5.07;;;;;;;4.49;79.47;94400.28;5114817;28;20172;-76
2021/01/11 02:46:58;;;;;;;6.27;4.90;;;;;;;4.39;79.25;94372.31;5114804;28;20198;-71
2021/01/11 02:49:25;;;;;;;6.37;4.83;;;;;;;4.56;78.98;94391.84;5115852;28;20170;-72
2021/01/11 02:52:01;;;;;;;6.45;4.47;;;;;;;4.48;78.89;94370.38;5113978;28;20251;-75
2021/01/11 02:54:37;;;;;;;7.03;4.85;;;;;;;4.54;77.80;94352.47;5113310;28;20179;-72
2021/01/11 02:57:16;;;;;;;7.88;4.93;;;;;;;4.50;78.14;94341.00;5113503;28;20162;-72
2021/01/11 02:59:52;;;;;;;6.45;4.90;;;;;;;4.43;77.05;94317.72;5130549;27;20242;-72
2021/01/11 03:02:18;;;;;;;6.07;4.75;;;;;;;4.39;77.57;94295.66;5113224;28;20223;-72
2021/01/11 03:04:44;;;;;;;4.55;3.75;;;;;;;4.59;76.01;94274.84;5128887;27;20180;-72
2021/01/11 03:07:10;;;;;;;5.53;3.77;;;;;;;4.56;75.85;94257.00;5133127;27;20291;-72
2021/01/11 03:09:39;;;;;;;4.80;3.40;;;;;;;4.51;76.51;94244.72;5114579;28;20268;-72
2021/01/11 03:12:05;;;;;;;5.70;3.55;;;;;;;4.53;76.51;94231.19;5130272;27;20181;-72
2021/01/11 03:14:30;;;;;;;3.53;3.13;;;;;;;4.47;76.51;94215.50;5112986;28;20182;-72
2021/01/11 03:16:56;;;;;;;6.17;3.17;;;;;;;4.54;76.52;94195.72;5114380;28;20173;-73
2021/01/11 03:19:22;;;;;;;3.67;2.73;;;;;;;4.45;76.30;94186.00;5112779;28;20174;-72
2021/01/11 03:21:47;;;;;;;2.93;2.47;;;;;;;4.53;76.12;94180.94;5113073;28;20166;-73
2021/01/11 03:24:17;;;;;;;4.60;2.53;;;;;;;4.38;76.85;94156.66;5114853;28;20223;-73
2021/01/11 03:26:43;;;;;;;3.38;2.10;;;;;;;4.46;76.56;94163.75;5129590;27;20455;-72
2021/01/11 03:29:08;;;;;;;2.47;2.27;;;;;;;4.39;77.21;94152.16;5129764;27;20281;-72
2021/01/11 03:31:34;;;;;;;4.07;2.73;;;;;;;4.48;77.24;94150.19;5129942;27;20418;-72
2021/01/11 03:33:59;;;;;;;2.40;2.20;;;;;;;4.48;77.72;94147.53;5113774;28;20290;-72
2021/01/11 03:36:25;;;;;;;3.07;2.37;;;;;;;4.48;77.34;94129.81;5113752;28;20225;-73
2021/01/11 03:38:50;;;;;;;5.23;2.17;;;;;;;4.29;78.01;94128.75;5114122;28;20170;-74
2021/01/11 03:41:16;;;;;;;3.17;2.30;;;;;;;4.18;78.97;94134.41;5113913;28;20169;-72
2021/01/11 03:43:43;;;;;;;2.53;2.20;;;;;;;4.13;79.20;94134.59;5129652;27;20182;-73
2021/01/11 03:46:09;;;;;;;1.95;1.73;;;;;;;4.21;78.81;94140.94;5129412;27;20176;-73
2021/01/11 03:48:35;;;;;;;2.20;2.00;;;;;;;4.25;78.84;94118.81;5112250;28;20209;-74
2021/01/11 03:51:00;;;;;;;2.93;2.00;;;;;;;4.39;78.39;94133.66;5113456;28;20911;-72
2021/01/11 03:53:26;;;;;;;1.80;1.70;;;;;;;4.45;78.47;94135.00;5129563;27;20199;-75
2021/01/11 03:55:52;;;;;;;2.30;2.10;;;;;;;4.52;77.92;94129.94;5114423;28;20177;-73
2021/01/11 03:58:17;;;;;;;1.97;1.87;;;;;;;4.57;77.78;94137.69;5113417;28;20264;-73
2021/01/11 04:00:43;;;;;;;3.23;1.97;;;;;;;4.63;76.98;94156.75;5113274;28;20172;-72
2021/01/11 04:03:08;;;;;;;1.40;1.30;;;;;;;4.58;77.42;94170.19;5113503;28;20197;-75
2021/01/11 04:05:35;;;;;;;1.70;1.30;;;;;;;4.73;76.88;94196.03;5113240;28;20173;-72
2021/01/11 04:08:01;;;;;;;1.70;1.60;;;;;;;4.77;77.26;94212.81;5113099;28;20205;-73
2021/01/11 04:10:27;;;;;;;1.77;1.67;;;;;;;4.91;76.04;94229.16;5113458;28;20185;-74
2021/01/11 04:12:53;;;;;;;1.60;1.50;;;;;;;4.89;76.41;94218.16;5113245;28;20638;-74
2021/01/11 04:15:18;;;;;;;3.70;1.57;;;;;;;5.07;75.98;94225.94;5111905;28;20173;-73
2021/01/11 04:17:44;;;;;;;3.03;1.57;;;;;;;5.12;75.88;94212.50;5088170;27;20229;-75
2021/01/11 04:20:09;;;;;;;1.40;1.30;;;;;;;5.14;76.74;94212.94;5112954;28;20174;-76
2021/01/11 04:22:35;;;;;;;2.17;1.40;;;;;;;5.19;76.12;94212.72;5112878;28;20169;-75
2021/01/11 04:25:00;;;;;;;2.03;1.83;;;;;;;5.08;76.06;94171.91;5113070;28;20254;-75
2021/01/11 04:27:26;;;;;;;1.37;1.27;;;;;;;5.01;76.42;94130.88;5106612;28;20222;-72
2021/01/11 04:29:51;;;;;;;1.50;1.40;;;;;;;4.95;76.90;94142.78;5094315;28;20692;-73
2021/01/11 04:32:17;;;;;;;3.03;1.67;;;;;;;5.02;76.72;94158.88;5092396;28;20200;-72
2021/01/11 04:34:42;;;;;;;1.60;1.50;;;;;;;5.03;76.71;94186.09;5091120;28;20533;-76
2021/01/11 04:37:08;;;;;;;2.30;1.57;;;;;;;5.04;77.16;94171.78;5092177;28;20244;-74
2021/01/11 04:39:34;;;;;;;1.70;1.60;;;;;;;5.00;77.14;94049.97;5091110;28;20188;-73
2021/01/11 04:42:01;;;;;;;1.48;1.25;;;;;;;4.82;79.11;93947.31;5091560;28;20213;-73
2021/01/11 04:44:26;;;;;;;1.90;1.50;;;;;;;4.57;79.56;93949.97;5074035;28;20567;-73
2021/01/11 04:46:52;;;;;;;1.77;1.67;;;;;;;4.76;79.73;93994.38;5060350;28;20198;-72
2021/01/11 04:49:17;;;;;;;1.60;1.50;;;;;;;4.76;78.92;93995.13;5073929;28;20166;-73
2021/01/11 04:51:43;;;;;;;1.60;1.50;;;;;;;4.72;79.53;94002.22;5090529;28;20197;-74
2021/01/11 04:54:08;;;;;;;1.50;1.40;;;;;;;4.73;78.77;94032.06;5073760;28;20175;-73
2021/01/11 04:56:41;;;;;;;1.50;1.40;;;;;;;4.81;78.57;94014.53;5091872;28;20600;-73
2021/01/11 04:59:07;;;;;;;1.30;1.20;;;;;;;4.78;78.25;94019.41;5091811;28;20170;-71
2021/01/11 05:01:33;;;;;;;1.48;1.40;;;;;;;4.80;78.15;94019.06;5092286;28;20265;-74
2021/01/11 05:03:59;;;;;;;1.70;1.60;;;;;;;4.79;78.28;94038.69;5092828;28;20654;-72
2021/01/11 05:06:24;;;;;;;1.40;1.30;;;;;;;4.81;78.69;94019.84;5091530;28;20178;-73
2021/01/11 05:08:50;;;;;;;1.50;1.40;;;;;;;4.88;78.57;94047.31;5091846;28;20420;-77
2021/01/11 05:11:15;;;;;;;1.50;1.40;;;;;;;4.84;77.90;94053.56;5091677;28;20201;-72
2021/01/11 05:13:41;;;;;;;2.53;1.67;;;;;;;4.86;78.07;94062.72;5091781;28;20551;-72
2021/01/11 05:16:13;;;;;;;1.73;1.47;;;;;;;4.85;77.87;94094.78;5090428;28;20171;-73
2021/01/11 05:18:39;;;;;;;1.55;1.45;;;;;;;5.10;78.11;94087.66;5092484;28;20213;-72
2021/01/11 05:21:05;;;;;;;1.50;1.37;;;;;;;5.06;76.67;94100.78;5091364;28;20206;-71
2021/01/11 05:23:35;;;;;;;1.55;1.45;;;;;;;5.03;76.73;94059.09;5091665;28;20178;-72
2021/01/11 05:26:10;;;;;;;1.60;1.50;;;;;;;5.16;75.94;94065.97;5090496;28;20189;-72
2021/01/11 05:28:35;;;;;;;1.67;1.50;;;;;;;5.12;76.96;94074.88;5074870;28;20197;-72
2021/01/11 05:31:01;;;;;;;2.00;1.40;;;;;;;5.06;77.46;94068.28;5091623;28;20435;-73
2021/01/11 05:33:26;;;;;;;1.63;1.43;;;;;;;5.20;78.65;94074.00;5090052;28;20187;-73
2021/01/11 05:36:06;;;;;;;2.03;1.43;;;;;;;5.03;79.72;94091.63;5092863;28;20584;-72
2021/01/11 05:38:38;;;;;;;3.10;1.38;;;;;;;5.19;78.99;94104.22;5090397;28;20181;-73
2021/01/11 05:41:20;;;;;;;1.48;1.38;;;;;;;5.13;79.57;94118.78;5090345;28;20174;-72
2021/01/11 05:44:06;;;;;;;1.80;1.67;;;;;;;5.11;80.48;94126.28;5090421;28;20173;-75
2021/01/11 05:46:31;;;;;;;2.65;1.60;;;;;;;5.12;80.12;94098.72;5090802;28;20182;-73
2021/01/11 05:49:07;;;;;;;1.67;1.57;;;;;;;5.22;80.27;94114.94;5091426;28;20182;-72
2021/01/11 05:51:33;;;;;;;2.80;1.67;;;;;;;5.32;79.06;94101.25;5090461;28;20650;-72
2021/01/11 05:53:59;;;;;;;1.63;1.50;;;;;;;4.98;79.63;94099.78;5073523;28;20179;-72
2021/01/11 05:56:24;;;;;;;2.13;1.57;;;;;;;5.08;79.99;94088.00;5089728;28;20777;-72
2021/01/11 05:59:03;;;;;;;1.93;1.70;;;;;;;5.13;78.90;94098.38;5089903;28;20197;-72
2021/01/11 06:01:30;;;;;;;4.60;1.92;;;;;;;5.22;79.46;94120.22;5091187;28;20178;-72
2021/01/11 06:03:55;;;;;;;2.42;1.70;;;;;;;5.29;78.93;94098.50;5091692;28;20261;-72
2021/01/11 06:06:21;;;;;;;3.13;2.27;;;;;;;5.11;80.42;94113.03;5093828;28;20216;-72
2021/01/11 06:08:46;;;;;;;3.17;2.60;;;;;;;5.24;79.15;94136.53;5095158;28;20394;-72
2021/01/11 06:11:12;;;;;;;5.93;3.43;;;;;;;5.30;79.48;94126.50;5095128;28;20544;-72
2021/01/11 06:13:37;;;;;;;6.00;4.20;;;;;;;5.14;79.77;94123.72;5093544;28;20167;-73
2021/01/11 06:16:03;;;;;;;7.03;4.53;;;;;;;5.14;80.26;94150.19;5093845;28;20549;-77
2021/01/11 06:18:29;;;;;;;6.00;4.17;;;;;;;4.90;81.30;94156.19;5093847;28;20356;-75
2021/01/11 06:20:54;;;;;;;5.53;4.43;;;;;;;5.09;80.65;94154.91;5093929;28;20170;-74
2021/01/11 06:23:26;;;;;;;9.20;6.80;;;;;;;5.15;79.67;94161.53;5093521;28;20163;-78
2021/01/11 06:25:52;;;;;;;11.85;8.80;;;;;;;5.14;80.06;94187.25;5095415;28;20194;-78
2021/01/11 06:28:27;;;;;;;14.20;8.20;;;;;;;5.21;79.03;94189.34;5086386;28;20300;-76
2021/01/11 06:30:53;;;;;;;10.68;7.38;;;;;;;5.19;79.29;94178.31;5076835;28;20178;-74
2021/01/11 06:33:25;;;;;;;12.23;7.17;;;;;;;5.10;78.35;94169.69;5094730;28;20681;-78
2021/01/11 06:35:52;;;;;;;9.68;6.22;;;;;;;5.21;78.14;94184.06;5093197;28;20211;-79
2021/01/11 06:38:28;;;;;;;13.10;7.53;;;;;;;4.94;79.32;94198.66;5094407;28;20705;-75
2021/01/11 06:41:03;;;;;;;10.05;6.28;;;;;;;5.20;78.04;94174.56;5082421;28;20182;-73
2021/01/11 06:43:41;;;;;;;8.27;6.38;;;;;;;5.24;77.58;94164.88;5073987;28;20170;-73
2021/01/11 06:46:07;;;;;;;9.45;6.15;;;;;;;4.87;78.40;94156.84;5089841;28;20175;-73
2021/01/11 06:48:33;;;;;;;9.37;5.97;;;;;;;5.12;77.82;94162.22;5073891;28;20205;-74
2021/01/11 06:51:08;;;;;;;9.80;5.83;;;;;;;4.84;79.00;94154.88;5076402;28;20171;-79
2021/01/11 06:53:33;;;;;;;10.40;5.65;;;;;;;4.73;79.01;94156.38;5114197;28;20493;-77
2021/01/11 06:56:08;;;;;;;12.13;6.03;;;;;;;5.01;78.08;94178.50;5099970;28;20269;-78
2021/01/11 06:58:35;;;;;;;9.17;6.20;;;;;;;4.93;79.70;94186.50;5074745;28;20709;-75
2021/01/11 07:01:06;;;;;;;9.93;6.60;;;;;;;5.00;79.74;94200.78;5072827;28;20504;-73
2021/01/11 07:04:01;;;;;;;11.27;6.78;;;;;;;5.15;79.28;94194.06;5113192;28;20582;-74
2021/01/11 07:06:36;;;;;;;10.77;7.13;;;;;;;4.95;80.30;94211.56;5082510;28;20654;-76
2021/01/11 07:09:04;;;;;;;13.70;8.10;;;;;;;5.00;79.65;94214.00;5071387;28;20591;-76
2021/01/11 07:11:42;;;;;;;11.98;6.75;;;;;;;5.10;79.22;94219.97;5074054;28;20255;-75
2021/01/11 07:14:12;;;;;;;16.63;8.07;;;;;;;5.11;78.68;94221.53;5091361;28;20692;-77
2021/01/11 07:16:53;;;;;;;21.43;8.27;;;;;;;5.10;79.33;94219.97;5050947;28;20537;-72
2021/01/11 07:19:36;;;;;;;13.15;8.82;;;;;;;5.23;79.11;94222.34;5034958;28;20422;-78
2021/01/11 07:22:03;;;;;;;17.38;9.52;;;;;;;5.28;78.89;94214.19;5058735;28;20236;-76
2021/01/11 07:24:29;;;;;;;15.98;9.27;;;;;;;5.13;79.67;94228.03;5038277;28;20250;-75
2021/01/11 07:26:54;;;;;;;18.80;10.33;;;;;;;5.09;79.99;94229.00;5066111;28;20668;-75
2021/01/11 07:29:21;;;;;;;14.70;10.03;;;;;;;4.99;80.09;94233.63;5034445;28;20609;-75
2021/01/11 07:31:47;;;;;;;19.38;10.45;;;;;;;5.21;80.02;94235.13;5061851;28;20166;-72
2021/01/11 07:34:19;;;;;;;16.13;10.23;;;;;;;5.01;79.39;94244.66;5091398;28;20177;-73
2021/01/11 07:36:50;;;;;;;16.75;10.60;;;;;;;5.09;80.36;94269.47;5090882;28;20222;-75
2021/01/11 07:39:25;;;;;;;20.33;11.00;;;;;;;5.23;79.71;94277.94;5072244;28;20250;-74
2021/01/11 07:41:53;;;;;;;17.90;11.27;;;;;;;5.11;80.14;94266.53;5083138;28;20506;-79
2021/01/11 07:44:33;;;;;;;18.48;10.55;;;;;;;5.15;79.71;94283.28;5100693;27;20178;-76
2021/01/11 07:47:00;;;;;;;19.37;11.10;;;;;;;5.18;79.56;94301.19;5091581;28;20178;-76
2021/01/11 07:49:27;;;;;;;18.55;10.20;;;;;;;5.14;79.46;94310.84;5092112;28;20799;-79
2021/01/11 07:51:52;;;;;;;20.02;10.80;;;;;;;5.24;79.55;94310.47;5089550;28;20185;-77
2021/01/11 07:54:22;;;;;;;18.43;10.07;;;;;;;5.06;79.00;94309.84;5091474;28;20174;-76
2021/01/11 07:56:49;;;;;;;16.05;9.63;;;;;;;5.00;79.86;94303.97;5092865;28;20220;-77
2021/01/11 07:59:15;;;;;;;20.02;10.18;;;;;;;5.09;80.10;94311.03;5079752;28;20612;-78
2021/01/11 08:01:42;;;;;;;16.37;8.77;;;;;;;4.90;81.01;94307.00;5079993;28;20161;-76
2021/01/11 08:04:09;;;;;;;14.45;8.75;;;;;;;5.08;80.56;94335.97;5089228;28;20187;-75
2021/01/11 08:06:44;;;;;;;18.80;9.07;;;;;;;5.25;79.54;94343.78;5072841;28;20163;-76
2021/01/11 08:09:10;;;;;;;15.67;7.90;;;;;;;5.30;79.44;94348.88;5088016;28;20185;-74
2021/01/11 08:11:36;;;;;;;13.27;7.97;;;;;;;5.22;78.41;94333.84;5076744;28;20599;-76
2021/01/11 08:14:08;;;;;;;12.40;7.70;;;;;;;5.20;79.22;94334.16;5099050;28;20210;-73
2021/01/11 08:16:34;;;;;;;14.40;8.07;;;;;;;5.07;79.25;94334.41;5071283;28;20166;-73
2021/01/11 08:19:18;;;;;;;12.07;8.23;;;;;;;5.12;79.30;94321.78;5071998;28;20549;-76
2021/01/11 08:21:43;;;;;;;13.38;7.68;;;;;;;5.25;79.28;94335.84;5068933;28;20188;-79
2021/01/11 08:24:09;;;;;;;12.03;7.60;;;;;;;5.24;79.31;94350.16;5097376;28;20175;-74
2021/01/11 08:27:00;;;;;;;13.17;8.70;;;;;;;5.10;79.31;94353.06;5072102;28;20171;-74
2021/01/11 08:29:26;;;;;;;13.48;8.20;;;;;;;5.12;79.13;94366.75;5072272;28;20206;-74
2021/01/11 08:31:53;;;;;;;16.17;7.43;;;;;;;5.29;78.90;94371.94;5076016;28;20205;-73
2021/01/11 08:34:18;;;;;;;12.75;6.90;;;;;;;5.26;79.40;94358.56;5096851;28;20596;-77
2021/01/11 08:36:44;;;;;;;13.77;7.90;;;;;;;5.26;78.86;94375.19;5111480;28;20221;-76
2021/01/11 08:39:14;;;;;;;12.03;7.10;;;;;;;5.43;78.30;94369.00;5113123;28;20170;-73
2021/01/11 08:41:50;;;;;;;15.60;7.17;;;;;;;5.29;78.66;94368.50;5128219;27;20189;-78
2021/01/11 08:44:48;;;;;;;10.20;6.63;;;;;;;5.33;78.47;94374.69;5111157;28;20427;-76
2021/01/11 08:47:13;;;;;;;13.33;7.53;;;;;;;5.21;79.73;94393.94;5089962;28;20189;-74
2021/01/11 08:49:56;;;;;;;14.43;8.03;;;;;;;5.28;79.32;94385.50;5089927;28;20421;-75
2021/01/11 08:52:26;;;;;;;11.97;7.80;;;;;;;5.47;78.47;94385.78;5073088;28;20650;-75
2021/01/11 08:54:51;;;;;;;12.10;6.57;;;;;;;5.47;79.11;94401.69;5073481;28;20515;-74
2021/01/11 08:57:17;;;;;;;13.90;7.50;;;;;;;5.44;78.86;94409.50;5077521;28;21145;-75
2021/01/11 08:59:49;;;;;;;14.60;7.27;;;;;;;5.13;78.67;94409.88;5069492;28;20167;-74
2021/01/11 09:02:30;;;;;;;9.40;6.78;;;;;;;5.21;79.39;94406.38;5069298;28;20262;-73
2021/01/11 09:04:56;;;;;;;13.25;7.13;;;;;;;5.17;78.88;94397.56;5069749;28;20174;-77
2021/01/11 09:07:31;;;;;;;13.48;8.40;;;;;;;5.22;79.33;94405.31;5068786;28;20643;-73
2021/01/11 09:09:58;;;;;;;15.07;7.27;;;;;;;5.26;79.92;94401.69;5053123;28;20229;-73
2021/01/11 09:12:30;;;;;;;10.50;6.87;;;;;;;5.60;78.75;94380.53;5052553;28;20429;-75
2021/01/11 09:14:56;;;;;;;13.03;7.87;;;;;;;5.56;79.05;94388.38;5069427;28;20417;-74
2021/01/11 09:17:32;;;;;;;12.97;7.87;;;;;;;5.36;78.77;94386.50;5069140;28;20469;-74
2021/01/11 09:20:05;;;;;;;13.57;7.53;;;;;;;5.37;78.47;94399.41;5069386;28;20182;-76
2021/01/11 09:22:34;;;;;;;11.47;7.60;;;;;;;5.53;78.53;94399.63;5057085;28;20720;-74
2021/01/11 09:25:01;;;;;;;13.27;7.30;;;;;;;5.43;78.88;94408.72;5071379;28;21012;-74
2021/01/11 09:27:26;;;;;;;12.00;7.22;;;;;;;5.43;78.79;94403.41;5070480;28;20567;-74
2021/01/11 09:29:52;;;;;;;10.97;7.03;;;;;;;5.54;79.11;94401.94;5071420;28;20186;-75
2021/01/11 09:32:18;;;;;;;13.50;8.20;;;;;;;5.58;79.68;94402.84;5071043;28;20184;-77
2021/01/11 09:34:44;;;;;;;10.45;7.22;;;;;;;5.66;79.10;94400.44;5071500;28;20594;-73
2021/01/11 09:37:13;;;;;;;12.10;8.17;;;;;;;5.47;79.08;94416.78;5086421;28;20313;-73
2021/01/11 09:39:39;;;;;;;10.87;6.97;;;;;;;5.67;78.50;94402.78;5069941;28;20171;-78
2021/01/11 09:42:05;;;;;;;11.83;8.43;;;;;;;5.61;79.64;94405.94;5071248;28;20943;-74
2021/01/11 09:44:31;;;;;;;13.53;8.20;;;;;;;5.51;79.76;94415.84;5071774;28;20203;-73
2021/01/11 09:46:57;;;;;;;12.43;7.63;;;;;;;5.50;80.30;94400.25;5071275;28;20187;-75
2021/01/11 09:49:23;;;;;;;13.50;8.60;;;;;;;5.56;79.74;94399.75;5070030;28;20515;-74
2021/01/11 09:51:48;;;;;;;13.57;7.80;;;;;;;5.65;78.86;94399.66;5070160;28;20191;-74
2021/01/11 09:54:14;;;;;;;15.23;7.57;;;;;;;5.56;79.50;94383.84;5086497;28;20558;-76
2021/01/11 09:56:39;;;;;;;12.17;7.50;;;;;;;5.68;79.82;94392.94;5071102;28;20171;-76
2021/01/11 09:59:08;;;;;;;12.50;8.70;;;;;;;5.54;79.80;94398.50;5070952;28;20177;-74
2021/01/11 10:01:40;;;;;;;16.25;8.70;;;;;;;5.46;79.86;94399.38;5071409;28;20171;-74
2021/01/11 10:04:05;;;;;;;15.25;9.68;;;;;;;5.50;79.67;94389.66;5070934;28;20257;-77
2021/01/11 10:06:37;;;;;;;15.13;9.83;;;;;;;5.57;80.00;94406.59;5069888;28;20203;-76
2021/01/11 10:09:04;;;;;;;14.40;9.32;;;;;;;5.65;79.83;94410.25;5070824;28;20214;-74
2021/01/11 10:11:29;;;;;;;13.95;8.48;;;;;;;5.77;79.08;94385.69;5069866;28;20175;-73
2021/01/11 10:13:54;;;;;;;15.40;8.60;;;;;;;5.87;79.88;94387.94;5070798;28;20182;-77
2021/01/11 10:16:20;;;;;;;17.43;9.97;;;;;;;6.01;78.38;94401.72;5071491;28;20182;-77
2021/01/11 10:18:46;;;;;;;17.13;9.17;;;;;;;5.82;79.36;94401.38;5070991;28;20407;-78
2021/01/11 10:21:13;;;;;;;13.03;8.83;;;;;;;5.85;79.59;94368.94;5069453;28;20177;-79
2021/01/11 10:23:38;;;;;;;16.92;9.25;;;;;;;5.92;79.43;94374.50;5070776;28;20175;-78
2021/01/11 10:26:04;;;;;;;21.23;12.53;;;;;;;5.79;80.26;94380.84;5070586;28;20193;-73
2021/01/11 10:28:29;;;;;;;18.53;11.77;;;;;;;5.85;78.18;94371.59;5070938;28;20201;-75
2021/01/11 10:30:55;;;;;;;19.97;12.47;;;;;;;5.84;78.38;94352.28;5069617;28;20198;-76
2021/01/11 10:33:20;;;;;;;20.37;12.13;;;;;;;5.78;79.19;94358.09;5086705;28;20254;-73
2021/01/11 10:35:46;;;;;;;25.73;15.33;;;;;;;5.76;79.30;94358.41;5086050;28;20224;-74
2021/01/11 10:38:12;;;;;;;35.07;18.43;;;;;;;5.88;78.59;94370.94;5069494;28;20215;-79
2021/01/11 10:40:37;;;;;;;35.73;19.33;;;;;;;5.83;78.85;94374.56;5070780;28;20542;-75
2021/01/11 10:43:03;;;;;;;32.27;18.63;;;;;;;5.62;80.57;94373.84;5069744;28;20186;-73
2021/01/11 10:45:28;;;;;;;31.93;19.70;;;;;;;5.92;78.86;94376.38;5070702;28;20658;-73
2021/01/11 10:47:54;;;;;;;33.87;20.20;;;;;;;5.77;79.82;94380.38;5070455;28;20178;-74
2021/01/11 10:50:19;;;;;;;39.13;19.73;;;;;;;5.55;80.78;94400.81;5070569;28;20206;-78
2021/01/11 10:52:45;;;;;;;34.23;19.53;;;;;;;5.67;79.97;94364.88;5074043;28;20175;-75
2021/01/11 10:55:11;;;;;;;34.50;17.67;;;;;;;5.61;80.08;94366.97;5074128;28;20163;-79
2021/01/11 10:57:36;;;;;;;36.23;20.00;;;;;;;5.45;81.16;94398.59;5089501;28;20206;-80
2021/01/11 11:00:09;;;;;;;32.77;18.90;;;;;;;5.66;79.76;94380.00;5074007;28;20547;-80
2021/01/11 11:02:36;;;;;;;31.67;17.30;;;;;;;5.76;78.72;94329.28;5073816;28;20195;-76
2021/01/11 11:05:02;;;;;;;38.67;19.80;;;;;;;5.65;79.35;94348.56;5073980;28;20425;-76
2021/01/11 11:07:33;;;;;;;41.93;21.27;;;;;;;5.53;79.89;94350.06;5074297;28;20174;-76
2021/01/11 11:09:58;;;;;;;32.17;17.38;;;;;;;5.48;79.80;94379.41;5089754;28;20582;-74
2021/01/11 11:12:24;;;;;;;26.80;15.50;;;;;;;5.51;80.33;94397.28;5073835;28;20179;-76
2021/01/11 11:14:49;;;;;;;25.40;12.90;;;;;;;5.45;79.89;94403.88;5073593;28;20163;-74
2021/01/11 11:17:15;;;;;;;21.97;11.67;;;;;;;5.49;79.23;94401.34;5073784;28;20190;-74
2021/01/11 11:19:40;;;;;;;19.17;10.37;;;;;;;5.14;79.88;94406.13;5073558;28;20597;-76
2021/01/11 11:22:06;;;;;;;17.20;9.20;;;;;;;5.20;80.03;94400.31;5073965;28;20730;-74
2021/01/11 11:24:32;;;;;;;17.07;10.60;;;;;;;5.38;79.20;94365.78;5089752;28;20560;-76
2021/01/11 11:27:01;;;;;;;17.80;10.37;;;;;;;5.37;78.35;94388.81;5073557;28;20655;-77
2021/01/11 11:29:27;;;;;;;17.83;10.30;;;;;;;5.11;80.02;94375.03;5089066;28;20678;-74
2021/01/11 11:31:52;;;;;;;18.03;11.17;;;;;;;5.17;80.16;94341.97;5073554;28;20171;-75
2021/01/11 11:34:18;;;;;;;18.80;10.97;;;;;;;5.53;80.14;94355.38;5073201;28;20163;-77
2021/01/11 11:36:44;;;;;;;15.67;9.57;;;;;;;5.40;79.97;94359.06;5073212;28;20242;-73
2021/01/11 11:39:10;;;;;;;11.80;8.27;;;;;;;5.36;79.72;94358.16;5073240;28;20171;-78
2021/01/11 11:41:36;;;;;;;18.20;9.53;;;;;;;5.38;80.25;94379.00;5073592;28;20190;-78